sensor_id;sensor_type;location;lat;lon;timestamp;P1;durP1;ratioP1;P2;durP2;ratioP2
51654;SDS011;37732;53.106;7.030;2023-07-31T00:01:11;6.20;;;4.10;;
51654;SDS011;37732;53.106;7.030;2023-07-31T00:03:38;7.07;;;3.75;;
51654;SDS011;37732;53.106;7.030;2023-07-31T00:06:04;8.13;;;3.95;;
51654;SDS011;37732;53.106;7.030;2023-07-31T00:08:30;6.70;;;3.88;;
51654;SDS011;37732;53.106;7.030;2023-07-31T00:10:58;6.53;;;3.47;;
51654;SDS011;37732;53.106;7.030;2023-07-31T00:13:24;6.10;;;3.42;;
51654;SDS011;37732;53.106;7.030;2023-07-31T00:15:52;6.47;;;4.05;;
51654;SDS011;37732;53.106;7.030;2023-07-31T00:18:18;5.93;;;3.75;;
51654;SDS011;37732;53.106;7.030;2023-07-31T00:20:45;6.18;;;3.58;;
51654;SDS011;37732;53.106;7.030;2023-07-31T00:23:12;5.32;;;3.70;;
51654;SDS011;37732;53.106;7.030;2023-07-31T00:25:39;7.85;;;4.18;;
51654;SDS011;37732;53.106;7.030;2023-07-31T00:28:06;5.68;;;3.80;;
51654;SDS011;37732;53.106;7.030;2023-07-31T00:30:34;7.32;;;3.60;;
51654;SDS011;37732;53.106;7.030;2023-07-31T00:33:00;6.03;;;3.80;;
51654;SDS011;37732;53.106;7.030;2023-07-31T00:35:26;7.22;;;4.72;;
51654;SDS011;37732;53.106;7.030;2023-07-31T00:37:53;8.38;;;3.75;;
51654;SDS011;37732;53.106;7.030;2023-07-31T00:40:20;6.72;;;3.88;;
51654;SDS011;37732;53.106;7.030;2023-07-31T00:42:47;7.00;;;4.32;;
51654;SDS011;37732;53.106;7.030;2023-07-31T00:45:13;6.72;;;4.35;;
51654;SDS011;37732;53.106;7.030;2023-07-31T00:47:39;6.43;;;3.80;;
51654;SDS011;37732;53.106;7.030;2023-07-31T00:50:07;6.63;;;3.83;;
51654;SDS011;37732;53.106;7.030;2023-07-31T00:52:35;8.15;;;4.35;;
51654;SDS011;37732;53.106;7.030;2023-07-31T00:55:02;7.22;;;3.75;;
51654;SDS011;37732;53.106;7.030;2023-07-31T00:57:30;6.65;;;4.95;;
51654;SDS011;37732;53.106;7.030;2023-07-31T00:59:56;7.78;;;5.07;;
51654;SDS011;37732;53.106;7.030;2023-07-31T01:02:24;7.70;;;4.55;;
51654;SDS011;37732;53.106;7.030;2023-07-31T01:04:50;6.80;;;4.00;;
51654;SDS011;37732;53.106;7.030;2023-07-31T01:10:23;5.22;;;3.45;;
51654;SDS011;37732;53.106;7.030;2023-07-31T01:12:50;7.03;;;3.40;;
51654;SDS011;37732;53.106;7.030;2023-07-31T01:15:18;6.07;;;3.90;;
51654;SDS011;37732;53.106;7.030;2023-07-31T01:17:44;5.85;;;3.40;;
51654;SDS011;37732;53.106;7.030;2023-07-31T01:20:12;4.75;;;3.25;;
51654;SDS011;37732;53.106;7.030;2023-07-31T01:27:35;7.05;;;4.63;;
51654;SDS011;37732;53.106;7.030;2023-07-31T01:30:05;6.07;;;3.90;;
51654;SDS011;37732;53.106;7.030;2023-07-31T01:32:36;7.32;;;3.97;;
51654;SDS011;37732;53.106;7.030;2023-07-31T01:35:05;7.13;;;3.90;;
51654;SDS011;37732;53.106;7.030;2023-07-31T01:37:31;6.88;;;3.58;;
51654;SDS011;37732;53.106;7.030;2023-07-31T01:39:59;8.45;;;3.97;;
51654;SDS011;37732;53.106;7.030;2023-07-31T01:42:25;8.07;;;3.75;;
51654;SDS011;37732;53.106;7.030;2023-07-31T01:44:52;7.85;;;4.00;;
51654;SDS011;37732;53.106;7.030;2023-07-31T01:47:19;6.28;;;4.18;;
51654;SDS011;37732;53.106;7.030;2023-07-31T01:49:45;7.30;;;4.18;;
51654;SDS011;37732;53.106;7.030;2023-07-31T01:52:12;7.13;;;3.80;;
51654;SDS011;37732;53.106;7.030;2023-07-31T01:54:38;5.13;;;3.38;;
51654;SDS011;37732;53.106;7.030;2023-07-31T01:57:05;5.40;;;3.78;;
51654;SDS011;37732;53.106;7.030;2023-07-31T01:59:33;4.85;;;3.17;;
51654;SDS011;37732;53.106;7.030;2023-07-31T02:01:59;4.57;;;3.08;;
51654;SDS011;37732;53.106;7.030;2023-07-31T02:04:26;5.90;;;2.70;;
51654;SDS011;37732;53.106;7.030;2023-07-31T02:06:52;4.60;;;2.88;;
51654;SDS011;37732;53.106;7.030;2023-07-31T02:09:19;5.00;;;2.78;;
51654;SDS011;37732;53.106;7.030;2023-07-31T02:11:45;5.45;;;3.10;;
51654;SDS011;37732;53.106;7.030;2023-07-31T02:14:12;3.97;;;2.72;;
51654;SDS011;37732;53.106;7.030;2023-07-31T02:16:39;4.40;;;2.53;;
51654;SDS011;37732;53.106;7.030;2023-07-31T02:19:06;5.03;;;2.65;;
51654;SDS011;37732;53.106;7.030;2023-07-31T02:21:32;4.03;;;2.25;;
51654;SDS011;37732;53.106;7.030;2023-07-31T02:23:58;4.75;;;2.45;;
51654;SDS011;37732;53.106;7.030;2023-07-31T02:26:25;5.72;;;2.38;;
51654;SDS011;37732;53.106;7.030;2023-07-31T02:28:51;3.90;;;2.35;;
51654;SDS011;37732;53.106;7.030;2023-07-31T02:31:17;3.42;;;1.85;;
51654;SDS011;37732;53.106;7.030;2023-07-31T02:33:44;3.80;;;1.73;;
51654;SDS011;37732;53.106;7.030;2023-07-31T02:36:10;3.97;;;1.95;;
51654;SDS011;37732;53.106;7.030;2023-07-31T02:38:37;5.22;;;2.13;;
51654;SDS011;37732;53.106;7.030;2023-07-31T02:41:04;3.17;;;1.77;;
51654;SDS011;37732;53.106;7.030;2023-07-31T02:43:30;3.53;;;1.50;;
51654;SDS011;37732;53.106;7.030;2023-07-31T02:45:56;3.05;;;1.67;;
51654;SDS011;37732;53.106;7.030;2023-07-31T02:48:23;1.80;;;1.40;;
51654;SDS011;37732;53.106;7.030;2023-07-31T02:50:49;2.53;;;1.40;;
51654;SDS011;37732;53.106;7.030;2023-07-31T02:53:15;2.72;;;1.20;;
51654;SDS011;37732;53.106;7.030;2023-07-31T02:55:43;2.67;;;1.30;;
51654;SDS011;37732;53.106;7.030;2023-07-31T02:58:09;1.83;;;1.42;;
51654;SDS011;37732;53.106;7.030;2023-07-31T03:00:41;2.78;;;1.40;;
51654;SDS011;37732;53.106;7.030;2023-07-31T03:03:09;2.35;;;1.60;;
51654;SDS011;37732;53.106;7.030;2023-07-31T03:05:35;2.53;;;1.42;;
51654;SDS011;37732;53.106;7.030;2023-07-31T03:08:01;2.92;;;1.42;;
51654;SDS011;37732;53.106;7.030;2023-07-31T03:10:29;2.40;;;1.50;;
51654;SDS011;37732;53.106;7.030;2023-07-31T03:12:55;2.63;;;1.30;;
51654;SDS011;37732;53.106;7.030;2023-07-31T03:15:21;4.25;;;1.40;;
51654;SDS011;37732;53.106;7.030;2023-07-31T03:17:48;2.45;;;1.67;;
51654;SDS011;37732;53.106;7.030;2023-07-31T03:20:15;2.28;;;1.33;;
51654;SDS011;37732;53.106;7.030;2023-07-31T03:22:41;3.75;;;1.48;;
51654;SDS011;37732;53.106;7.030;2023-07-31T03:25:09;3.47;;;1.58;;
51654;SDS011;37732;53.106;7.030;2023-07-31T03:27:35;7.25;;;2.10;;
51654;SDS011;37732;53.106;7.030;2023-07-31T03:30:02;4.13;;;1.63;;
51654;SDS011;37732;53.106;7.030;2023-07-31T03:32:28;3.70;;;1.85;;
51654;SDS011;37732;53.106;7.030;2023-07-31T03:34:58;3.15;;;1.50;;
51654;SDS011;37732;53.106;7.030;2023-07-31T03:37:24;3.08;;;1.63;;
51654;SDS011;37732;53.106;7.030;2023-07-31T03:39:51;3.72;;;1.67;;
51654;SDS011;37732;53.106;7.030;2023-07-31T03:42:18;4.15;;;1.63;;
51654;SDS011;37732;53.106;7.030;2023-07-31T03:44:45;2.33;;;1.30;;
51654;SDS011;37732;53.106;7.030;2023-07-31T03:47:12;2.83;;;1.55;;
51654;SDS011;37732;53.106;7.030;2023-07-31T03:49:38;3.00;;;1.60;;
51654;SDS011;37732;53.106;7.030;2023-07-31T03:52:05;2.92;;;1.95;;
51654;SDS011;37732;53.106;7.030;2023-07-31T03:54:33;3.40;;;1.60;;
51654;SDS011;37732;53.106;7.030;2023-07-31T03:56:59;3.08;;;1.42;;
51654;SDS011;37732;53.106;7.030;2023-07-31T03:59:26;3.35;;;1.83;;
51654;SDS011;37732;53.106;7.030;2023-07-31T04:01:52;2.20;;;1.67;;
51654;SDS011;37732;53.106;7.030;2023-07-31T04:04:18;1.73;;;1.40;;
51654;SDS011;37732;53.106;7.030;2023-07-31T04:06:45;2.75;;;1.73;;
51654;SDS011;37732;53.106;7.030;2023-07-31T04:09:11;3.15;;;1.55;;
51654;SDS011;37732;53.106;7.030;2023-07-31T04:11:37;2.58;;;1.80;;
51654;SDS011;37732;53.106;7.030;2023-07-31T04:14:04;5.28;;;1.92;;
51654;SDS011;37732;53.106;7.030;2023-07-31T04:16:30;3.40;;;2.00;;
51654;SDS011;37732;53.106;7.030;2023-07-31T04:18:57;3.97;;;2.45;;
51654;SDS011;37732;53.106;7.030;2023-07-31T04:21:23;2.95;;;1.65;;
51654;SDS011;37732;53.106;7.030;2023-07-31T04:23:49;3.85;;;2.40;;
51654;SDS011;37732;53.106;7.030;2023-07-31T04:26:16;3.97;;;2.40;;
51654;SDS011;37732;53.106;7.030;2023-07-31T04:28:44;1.92;;;1.58;;
51654;SDS011;37732;53.106;7.030;2023-07-31T04:31:10;3.03;;;1.73;;
51654;SDS011;37732;53.106;7.030;2023-07-31T04:33:36;3.28;;;1.90;;
51654;SDS011;37732;53.106;7.030;2023-07-31T04:36:04;2.20;;;1.58;;
51654;SDS011;37732;53.106;7.030;2023-07-31T04:38:31;2.63;;;1.60;;
51654;SDS011;37732;53.106;7.030;2023-07-31T04:40:58;3.25;;;1.67;;
51654;SDS011;37732;53.106;7.030;2023-07-31T04:43:24;3.22;;;1.63;;
51654;SDS011;37732;53.106;7.030;2023-07-31T04:45:50;1.52;;;1.23;;
51654;SDS011;37732;53.106;7.030;2023-07-31T04:48:19;5.50;;;1.70;;
51654;SDS011;37732;53.106;7.030;2023-07-31T04:50:45;1.90;;;1.17;;
51654;SDS011;37732;53.106;7.030;2023-07-31T04:53:12;4.00;;;1.90;;
51654;SDS011;37732;53.106;7.030;2023-07-31T04:55:38;3.70;;;1.50;;
51654;SDS011;37732;53.106;7.030;2023-07-31T04:58:05;2.58;;;1.63;;
51654;SDS011;37732;53.106;7.030;2023-07-31T05:00:32;2.80;;;1.67;;
51654;SDS011;37732;53.106;7.030;2023-07-31T05:02:58;2.88;;;1.63;;
51654;SDS011;37732;53.106;7.030;2023-07-31T05:05:26;2.47;;;1.52;;
51654;SDS011;37732;53.106;7.030;2023-07-31T05:07:52;3.42;;;1.60;;
51654;SDS011;37732;53.106;7.030;2023-07-31T05:10:18;1.55;;;1.10;;
51654;SDS011;37732;53.106;7.030;2023-07-31T05:12:45;3.08;;;1.60;;
51654;SDS011;37732;53.106;7.030;2023-07-31T05:15:12;4.38;;;1.63;;
51654;SDS011;37732;53.106;7.030;2023-07-31T05:17:38;4.53;;;2.30;;
51654;SDS011;37732;53.106;7.030;2023-07-31T05:20:04;4.43;;;1.70;;
51654;SDS011;37732;53.106;7.030;2023-07-31T05:22:31;3.17;;;1.50;;
51654;SDS011;37732;53.106;7.030;2023-07-31T05:24:57;3.88;;;1.80;;
51654;SDS011;37732;53.106;7.030;2023-07-31T05:27:25;3.50;;;1.75;;
51654;SDS011;37732;53.106;7.030;2023-07-31T05:29:51;4.85;;;1.60;;
51654;SDS011;37732;53.106;7.030;2023-07-31T05:32:17;2.03;;;1.50;;
51654;SDS011;37732;53.106;7.030;2023-07-31T05:34:44;3.88;;;1.88;;
51654;SDS011;37732;53.106;7.030;2023-07-31T05:37:10;2.83;;;1.58;;
51654;SDS011;37732;53.106;7.030;2023-07-31T05:39:37;5.10;;;1.92;;
51654;SDS011;37732;53.106;7.030;2023-07-31T05:42:04;3.22;;;1.65;;
51654;SDS011;37732;53.106;7.030;2023-07-31T05:44:31;4.05;;;2.20;;
51654;SDS011;37732;53.106;7.030;2023-07-31T05:46:57;3.22;;;1.95;;
51654;SDS011;37732;53.106;7.030;2023-07-31T05:49:24;4.18;;;2.08;;
51654;SDS011;37732;53.106;7.030;2023-07-31T05:51:50;4.55;;;1.70;;
51654;SDS011;37732;53.106;7.030;2023-07-31T05:54:18;2.08;;;1.50;;
51654;SDS011;37732;53.106;7.030;2023-07-31T05:56:44;4.22;;;1.38;;
51654;SDS011;37732;53.106;7.030;2023-07-31T05:59:11;2.20;;;1.40;;
51654;SDS011;37732;53.106;7.030;2023-07-31T06:01:39;3.50;;;1.42;;
51654;SDS011;37732;53.106;7.030;2023-07-31T06:04:05;3.72;;;1.67;;
51654;SDS011;37732;53.106;7.030;2023-07-31T06:06:31;5.78;;;1.60;;
51654;SDS011;37732;53.106;7.030;2023-07-31T06:09:01;3.00;;;1.88;;
51654;SDS011;37732;53.106;7.030;2023-07-31T06:11:28;5.43;;;2.00;;
51654;SDS011;37732;53.106;7.030;2023-07-31T06:13:56;5.57;;;2.83;;
51654;SDS011;37732;53.106;7.030;2023-07-31T06:16:22;5.15;;;2.28;;
51654;SDS011;37732;53.106;7.030;2023-07-31T06:18:48;4.30;;;2.33;;
51654;SDS011;37732;53.106;7.030;2023-07-31T06:21:17;5.47;;;2.40;;
51654;SDS011;37732;53.106;7.030;2023-07-31T06:23:43;3.80;;;2.08;;
51654;SDS011;37732;53.106;7.030;2023-07-31T06:26:09;5.30;;;2.72;;
51654;SDS011;37732;53.106;7.030;2023-07-31T06:28:36;8.02;;;2.80;;
51654;SDS011;37732;53.106;7.030;2023-07-31T06:31:03;4.47;;;2.35;;
51654;SDS011;37732;53.106;7.030;2023-07-31T06:33:29;6.78;;;3.20;;
51654;SDS011;37732;53.106;7.030;2023-07-31T06:35:55;9.48;;;3.75;;
51654;SDS011;37732;53.106;7.030;2023-07-31T06:38:25;7.22;;;4.28;;
51654;SDS011;37732;53.106;7.030;2023-07-31T06:40:53;12.00;;;5.53;;
51654;SDS011;37732;53.106;7.030;2023-07-31T06:43:19;13.15;;;6.20;;
51654;SDS011;37732;53.106;7.030;2023-07-31T06:45:46;12.07;;;7.22;;
51654;SDS011;37732;53.106;7.030;2023-07-31T06:48:14;13.48;;;7.32;;
51654;SDS011;37732;53.106;7.030;2023-07-31T06:50:40;19.85;;;9.27;;
51654;SDS011;37732;53.106;7.030;2023-07-31T06:53:06;20.02;;;8.43;;
51654;SDS011;37732;53.106;7.030;2023-07-31T06:55:34;18.45;;;8.75;;
51654;SDS011;37732;53.106;7.030;2023-07-31T06:58:00;17.92;;;9.73;;
51654;SDS011;37732;53.106;7.030;2023-07-31T07:00:29;23.42;;;9.57;;
51654;SDS011;37732;53.106;7.030;2023-07-31T07:02:56;22.10;;;9.85;;
51654;SDS011;37732;53.106;7.030;2023-07-31T07:05:22;20.70;;;9.52;;
51654;SDS011;37732;53.106;7.030;2023-07-31T07:07:50;19.50;;;8.85;;
51654;SDS011;37732;53.106;7.030;2023-07-31T07:10:17;16.52;;;7.97;;
51654;SDS011;37732;53.106;7.030;2023-07-31T07:12:43;19.35;;;8.57;;
51654;SDS011;37732;53.106;7.030;2023-07-31T07:15:11;19.42;;;10.18;;
51654;SDS011;37732;53.106;7.030;2023-07-31T07:17:37;19.88;;;9.70;;
51654;SDS011;37732;53.106;7.030;2023-07-31T07:20:03;18.48;;;8.52;;
51654;SDS011;37732;53.106;7.030;2023-07-31T07:22:31;15.30;;;8.75;;
51654;SDS011;37732;53.106;7.030;2023-07-31T07:24:57;17.92;;;8.20;;
51654;SDS011;37732;53.106;7.030;2023-07-31T07:27:23;14.50;;;8.02;;
51654;SDS011;37732;53.106;7.030;2023-07-31T07:29:51;14.82;;;8.57;;
51654;SDS011;37732;53.106;7.030;2023-07-31T07:32:18;15.85;;;8.10;;
51654;SDS011;37732;53.106;7.030;2023-07-31T07:34:59;16.20;;;8.50;;
51654;SDS011;37732;53.106;7.030;2023-07-31T07:37:25;18.08;;;10.13;;
51654;SDS011;37732;53.106;7.030;2023-07-31T07:39:53;16.30;;;8.68;;
51654;SDS011;37732;53.106;7.030;2023-07-31T07:42:19;18.23;;;9.82;;
51654;SDS011;37732;53.106;7.030;2023-07-31T07:44:45;16.45;;;9.10;;
51654;SDS011;37732;53.106;7.030;2023-07-31T07:47:16;20.95;;;10.02;;
51654;SDS011;37732;53.106;7.030;2023-07-31T07:49:43;18.17;;;9.88;;
51654;SDS011;37732;53.106;7.030;2023-07-31T07:52:09;19.85;;;10.05;;
51654;SDS011;37732;53.106;7.030;2023-07-31T07:54:35;17.95;;;10.18;;
51654;SDS011;37732;53.106;7.030;2023-07-31T07:57:03;15.65;;;9.10;;
51654;SDS011;37732;53.106;7.030;2023-07-31T07:59:29;18.83;;;9.85;;
51654;SDS011;37732;53.106;7.030;2023-07-31T08:01:55;17.17;;;9.18;;
51654;SDS011;37732;53.106;7.030;2023-07-31T08:04:23;16.02;;;9.70;;
51654;SDS011;37732;53.106;7.030;2023-07-31T08:06:49;13.38;;;7.78;;
51654;SDS011;37732;53.106;7.030;2023-07-31T08:09:15;15.38;;;8.65;;
51654;SDS011;37732;53.106;7.030;2023-07-31T08:11:44;9.10;;;5.47;;
51654;SDS011;37732;53.106;7.030;2023-07-31T08:14:10;9.50;;;6.20;;
51654;SDS011;37732;53.106;7.030;2023-07-31T08:16:36;11.20;;;6.60;;
51654;SDS011;37732;53.106;7.030;2023-07-31T08:19:02;9.25;;;5.75;;
51654;SDS011;37732;53.106;7.030;2023-07-31T08:21:28;9.90;;;6.20;;
51654;SDS011;37732;53.106;7.030;2023-07-31T08:23:55;10.02;;;5.38;;
51654;SDS011;37732;53.106;7.030;2023-07-31T08:26:22;8.95;;;5.40;;
51654;SDS011;37732;53.106;7.030;2023-07-31T08:28:48;9.73;;;6.55;;
51654;SDS011;37732;53.106;7.030;2023-07-31T08:31:14;7.43;;;5.25;;
51654;SDS011;37732;53.106;7.030;2023-07-31T08:33:43;8.20;;;4.93;;
51654;SDS011;37732;53.106;7.030;2023-07-31T08:36:09;9.88;;;5.05;;
51654;SDS011;37732;53.106;7.030;2023-07-31T08:38:37;10.23;;;5.60;;
51654;SDS011;37732;53.106;7.030;2023-07-31T08:41:03;9.90;;;5.28;;
51654;SDS011;37732;53.106;7.030;2023-07-31T08:43:30;7.25;;;4.38;;
51654;SDS011;37732;53.106;7.030;2023-07-31T08:45:56;8.50;;;4.57;;
51654;SDS011;37732;53.106;7.030;2023-07-31T08:48:25;9.77;;;5.28;;
51654;SDS011;37732;53.106;7.030;2023-07-31T08:50:51;9.55;;;5.57;;
51654;SDS011;37732;53.106;7.030;2023-07-31T08:53:18;9.77;;;4.93;;
51654;SDS011;37732;53.106;7.030;2023-07-31T08:55:46;9.15;;;4.30;;
51654;SDS011;37732;53.106;7.030;2023-07-31T08:58:12;8.52;;;4.22;;
51654;SDS011;37732;53.106;7.030;2023-07-31T09:00:42;6.60;;;3.60;;
51654;SDS011;37732;53.106;7.030;2023-07-31T09:03:16;8.35;;;3.90;;
51654;SDS011;37732;53.106;7.030;2023-07-31T09:05:44;6.05;;;3.25;;
51654;SDS011;37732;53.106;7.030;2023-07-31T09:08:12;5.95;;;3.45;;
51654;SDS011;37732;53.106;7.030;2023-07-31T09:10:43;6.72;;;3.58;;
51654;SDS011;37732;53.106;7.030;2023-07-31T09:13:14;5.28;;;3.22;;
51654;SDS011;37732;53.106;7.030;2023-07-31T09:15:43;5.28;;;3.67;;
51654;SDS011;37732;53.106;7.030;2023-07-31T09:18:09;6.28;;;3.17;;
51654;SDS011;37732;53.106;7.030;2023-07-31T09:20:36;4.88;;;3.13;;
51654;SDS011;37732;53.106;7.030;2023-07-31T09:23:10;5.15;;;3.15;;
51654;SDS011;37732;53.106;7.030;2023-07-31T09:25:37;5.10;;;3.28;;
51654;SDS011;37732;53.106;7.030;2023-07-31T09:28:08;7.93;;;3.10;;
51654;SDS011;37732;53.106;7.030;2023-07-31T09:30:45;7.43;;;3.33;;
51654;SDS011;37732;53.106;7.030;2023-07-31T09:33:12;5.45;;;3.22;;
51654;SDS011;37732;53.106;7.030;2023-07-31T09:35:39;6.13;;;3.42;;
51654;SDS011;37732;53.106;7.030;2023-07-31T09:38:15;6.35;;;3.03;;
51654;SDS011;37732;53.106;7.030;2023-07-31T09:40:44;3.88;;;2.17;;
51654;SDS011;37732;53.106;7.030;2023-07-31T09:43:11;4.22;;;2.72;;
51654;SDS011;37732;53.106;7.030;2023-07-31T09:45:39;5.05;;;2.40;;
51654;SDS011;37732;53.106;7.030;2023-07-31T09:48:09;4.20;;;2.35;;
51654;SDS011;37732;53.106;7.030;2023-07-31T09:50:36;5.57;;;2.70;;
51654;SDS011;37732;53.106;7.030;2023-07-31T09:53:05;4.13;;;2.08;;
51654;SDS011;37732;53.106;7.030;2023-07-31T09:55:32;3.50;;;1.80;;
51654;SDS011;37732;53.106;7.030;2023-07-31T09:57:59;3.13;;;1.95;;
51654;SDS011;37732;53.106;7.030;2023-07-31T10:00:29;4.32;;;2.08;;
51654;SDS011;37732;53.106;7.030;2023-07-31T10:03:00;4.68;;;2.65;;
51654;SDS011;37732;53.106;7.030;2023-07-31T10:05:36;2.33;;;1.50;;
51654;SDS011;37732;53.106;7.030;2023-07-31T10:08:04;2.63;;;1.67;;
51654;SDS011;37732;53.106;7.030;2023-07-31T10:10:31;3.17;;;1.90;;
51654;SDS011;37732;53.106;7.030;2023-07-31T10:12:59;1.95;;;1.52;;
51654;SDS011;37732;53.106;7.030;2023-07-31T10:15:27;2.75;;;1.50;;
51654;SDS011;37732;53.106;7.030;2023-07-31T10:17:54;1.83;;;1.33;;
51654;SDS011;37732;53.106;7.030;2023-07-31T10:20:22;2.47;;;1.20;;
51654;SDS011;37732;53.106;7.030;2023-07-31T10:22:50;1.58;;;1.10;;
51654;SDS011;37732;53.106;7.030;2023-07-31T10:25:18;2.28;;;1.17;;
51654;SDS011;37732;53.106;7.030;2023-07-31T10:27:45;1.92;;;1.17;;
51654;SDS011;37732;53.106;7.030;2023-07-31T10:30:17;1.42;;;1.10;;
51654;SDS011;37732;53.106;7.030;2023-07-31T10:32:45;0.80;;;0.80;;
51654;SDS011;37732;53.106;7.030;2023-07-31T10:35:11;1.33;;;0.90;;
51654;SDS011;37732;53.106;7.030;2023-07-31T10:37:38;1.95;;;1.25;;
51654;SDS011;37732;53.106;7.030;2023-07-31T10:40:11;1.65;;;1.20;;
51654;SDS011;37732;53.106;7.030;2023-07-31T10:47:44;2.58;;;1.40;;
51654;SDS011;37732;53.106;7.030;2023-07-31T10:50:16;3.63;;;1.58;;
51654;SDS011;37732;53.106;7.030;2023-07-31T10:52:47;1.83;;;1.55;;
51654;SDS011;37732;53.106;7.030;2023-07-31T10:55:16;3.05;;;1.70;;
51654;SDS011;37732;53.106;7.030;2023-07-31T10:57:48;1.67;;;1.27;;
51654;SDS011;37732;53.106;7.030;2023-07-31T11:00:21;2.15;;;1.52;;
51654;SDS011;37732;53.106;7.030;2023-07-31T11:05:43;2.10;;;1.30;;
51654;SDS011;37732;53.106;7.030;2023-07-31T11:08:31;1.23;;;1.13;;
51654;SDS011;37732;53.106;7.030;2023-07-31T11:11:07;1.40;;;1.30;;
51654;SDS011;37732;53.106;7.030;2023-07-31T11:13:44;3.53;;;1.40;;
51654;SDS011;37732;53.106;7.030;2023-07-31T11:16:11;1.30;;;1.20;;
51654;SDS011;37732;53.106;7.030;2023-07-31T11:18:40;1.23;;;1.10;;
51654;SDS011;37732;53.106;7.030;2023-07-31T11:21:18;1.50;;;1.30;;
51654;SDS011;37732;53.106;7.030;2023-07-31T11:23:49;1.50;;;1.40;;
51654;SDS011;37732;53.106;7.030;2023-07-31T11:26:16;1.25;;;1.15;;
51654;SDS011;37732;53.106;7.030;2023-07-31T11:28:42;1.60;;;1.40;;
51654;SDS011;37732;53.106;7.030;2023-07-31T11:31:09;1.50;;;1.30;;
51654;SDS011;37732;53.106;7.030;2023-07-31T11:33:36;2.10;;;1.70;;
51654;SDS011;37732;53.106;7.030;2023-07-31T11:36:02;2.17;;;1.80;;
51654;SDS011;37732;53.106;7.030;2023-07-31T11:38:32;2.75;;;1.77;;
51654;SDS011;37732;53.106;7.030;2023-07-31T11:40:59;2.53;;;1.90;;
51654;SDS011;37732;53.106;7.030;2023-07-31T11:43:30;3.00;;;2.00;;
51654;SDS011;37732;53.106;7.030;2023-07-31T11:45:57;2.50;;;2.17;;
51654;SDS011;37732;53.106;7.030;2023-07-31T11:48:28;3.50;;;2.15;;
51654;SDS011;37732;53.106;7.030;2023-07-31T11:50:59;3.28;;;1.45;;
51654;SDS011;37732;53.106;7.030;2023-07-31T11:55:51;2.05;;;1.20;;
51654;SDS011;37732;53.106;7.030;2023-07-31T11:58:18;3.47;;;1.33;;
51654;SDS011;37732;53.106;7.030;2023-07-31T12:00:45;5.32;;;1.65;;
51654;SDS011;37732;53.106;7.030;2023-07-31T12:03:13;5.18;;;1.50;;
51654;SDS011;37732;53.106;7.030;2023-07-31T12:05:39;0.80;;;0.77;;
51654;SDS011;37732;53.106;7.030;2023-07-31T12:08:09;1.05;;;0.70;;
51654;SDS011;37732;53.106;7.030;2023-07-31T12:10:37;0.88;;;0.60;;
51654;SDS011;37732;53.106;7.030;2023-07-31T12:17:59;0.60;;;0.60;;
51654;SDS011;37732;53.106;7.030;2023-07-31T12:20:25;0.93;;;0.50;;
51654;SDS011;37732;53.106;7.030;2023-07-31T12:22:52;0.50;;;0.50;;
51654;SDS011;37732;53.106;7.030;2023-07-31T12:25:19;0.75;;;0.50;;
51654;SDS011;37732;53.106;7.030;2023-07-31T12:27:45;0.52;;;0.50;;
51654;SDS011;37732;53.106;7.030;2023-07-31T12:33:14;1.63;;;0.50;;
51654;SDS011;37732;53.106;7.030;2023-07-31T12:35:41;0.73;;;0.60;;
51654;SDS011;37732;53.106;7.030;2023-07-31T12:38:08;0.50;;;0.50;;
51654;SDS011;37732;53.106;7.030;2023-07-31T12:40:38;0.57;;;0.57;;
51654;SDS011;37732;53.106;7.030;2023-07-31T12:43:07;0.50;;;0.50;;
51654;SDS011;37732;53.106;7.030;2023-07-31T12:45:33;0.95;;;0.60;;
51654;SDS011;37732;53.106;7.030;2023-07-31T12:48:00;0.98;;;0.80;;
51654;SDS011;37732;53.106;7.030;2023-07-31T12:50:27;3.13;;;0.80;;
51654;SDS011;37732;53.106;7.030;2023-07-31T12:52:53;0.63;;;0.60;;
51654;SDS011;37732;53.106;7.030;2023-07-31T12:55:22;1.20;;;0.80;;
51654;SDS011;37732;53.106;7.030;2023-07-31T12:57:49;1.13;;;0.70;;
51654;SDS011;37732;53.106;7.030;2023-07-31T13:00:15;1.00;;;0.90;;
51654;SDS011;37732;53.106;7.030;2023-07-31T13:02:42;1.33;;;1.00;;
51654;SDS011;37732;53.106;7.030;2023-07-31T13:05:09;0.90;;;0.88;;
51654;SDS011;37732;53.106;7.030;2023-07-31T13:07:35;1.55;;;1.20;;
51654;SDS011;37732;53.106;7.030;2023-07-31T13:10:02;2.85;;;1.35;;
51654;SDS011;37732;53.106;7.030;2023-07-31T13:12:28;2.88;;;1.48;;
51654;SDS011;37732;53.106;7.030;2023-07-31T13:14:56;1.90;;;1.20;;
51654;SDS011;37732;53.106;7.030;2023-07-31T13:17:22;2.63;;;1.20;;
51654;SDS011;37732;53.106;7.030;2023-07-31T13:19:48;2.17;;;1.25;;
51654;SDS011;37732;53.106;7.030;2023-07-31T13:22:14;2.33;;;1.20;;
51654;SDS011;37732;53.106;7.030;2023-07-31T13:24:41;1.38;;;1.27;;
51654;SDS011;37732;53.106;7.030;2023-07-31T13:27:07;2.40;;;1.35;;
51654;SDS011;37732;53.106;7.030;2023-07-31T13:29:36;2.50;;;1.63;;
51654;SDS011;37732;53.106;7.030;2023-07-31T13:32:03;1.85;;;1.27;;
51654;SDS011;37732;53.106;7.030;2023-07-31T13:34:29;3.30;;;1.20;;
51654;SDS011;37732;53.106;7.030;2023-07-31T13:36:55;2.58;;;1.60;;
51654;SDS011;37732;53.106;7.030;2023-07-31T13:39:21;1.98;;;1.60;;
51654;SDS011;37732;53.106;7.030;2023-07-31T13:41:47;3.17;;;1.73;;
51654;SDS011;37732;53.106;7.030;2023-07-31T13:44:14;3.85;;;1.77;;
51654;SDS011;37732;53.106;7.030;2023-07-31T13:46:41;4.00;;;1.92;;
51654;SDS011;37732;53.106;7.030;2023-07-31T13:49:07;3.13;;;1.73;;
51654;SDS011;37732;53.106;7.030;2023-07-31T13:51:33;4.43;;;1.85;;
51654;SDS011;37732;53.106;7.030;2023-07-31T13:54:00;5.55;;;1.90;;
51654;SDS011;37732;53.106;7.030;2023-07-31T13:56:28;2.97;;;2.00;;
51654;SDS011;37732;53.106;7.030;2023-07-31T13:58:56;4.93;;;2.65;;
51654;SDS011;37732;53.106;7.030;2023-07-31T14:01:22;5.35;;;2.45;;
51654;SDS011;37732;53.106;7.030;2023-07-31T14:03:52;4.82;;;2.20;;
51654;SDS011;37732;53.106;7.030;2023-07-31T14:06:19;7.55;;;2.80;;
51654;SDS011;37732;53.106;7.030;2023-07-31T14:08:45;4.88;;;2.47;;
51654;SDS011;37732;53.106;7.030;2023-07-31T14:11:11;8.27;;;2.75;;
51654;SDS011;37732;53.106;7.030;2023-07-31T14:13:37;5.82;;;2.97;;
51654;SDS011;37732;53.106;7.030;2023-07-31T14:16:08;5.78;;;2.88;;
51654;SDS011;37732;53.106;7.030;2023-07-31T14:18:34;6.15;;;3.10;;
51654;SDS011;37732;53.106;7.030;2023-07-31T14:21:02;6.68;;;3.03;;
51654;SDS011;37732;53.106;7.030;2023-07-31T14:23:28;4.38;;;2.55;;
51654;SDS011;37732;53.106;7.030;2023-07-31T14:25:54;4.00;;;2.58;;
51654;SDS011;37732;53.106;7.030;2023-07-31T14:28:20;3.80;;;2.33;;
51654;SDS011;37732;53.106;7.030;2023-07-31T14:30:48;5.13;;;2.70;;
51654;SDS011;37732;53.106;7.030;2023-07-31T14:33:14;5.45;;;3.00;;
51654;SDS011;37732;53.106;7.030;2023-07-31T14:35:40;7.75;;;3.28;;
51654;SDS011;37732;53.106;7.030;2023-07-31T14:38:06;6.97;;;3.00;;
51654;SDS011;37732;53.106;7.030;2023-07-31T14:40:34;6.25;;;3.13;;
51654;SDS011;37732;53.106;7.030;2023-07-31T14:43:01;7.63;;;3.10;;
51654;SDS011;37732;53.106;7.030;2023-07-31T14:45:28;7.75;;;3.45;;
51654;SDS011;37732;53.106;7.030;2023-07-31T14:47:54;8.65;;;3.92;;
51654;SDS011;37732;53.106;7.030;2023-07-31T14:50:20;7.78;;;3.08;;
51654;SDS011;37732;53.106;7.030;2023-07-31T14:52:48;7.50;;;3.60;;
51654;SDS011;37732;53.106;7.030;2023-07-31T14:55:15;8.38;;;3.88;;
51654;SDS011;37732;53.106;7.030;2023-07-31T14:57:41;8.50;;;3.63;;
51654;SDS011;37732;53.106;7.030;2023-07-31T15:00:07;8.05;;;4.50;;
51654;SDS011;37732;53.106;7.030;2023-07-31T15:02:38;7.68;;;3.35;;
51654;SDS011;37732;53.106;7.030;2023-07-31T15:05:05;8.38;;;4.30;;
51654;SDS011;37732;53.106;7.030;2023-07-31T15:07:32;8.40;;;3.72;;
51654;SDS011;37732;53.106;7.030;2023-07-31T15:09:58;9.38;;;4.60;;
51654;SDS011;37732;53.106;7.030;2023-07-31T15:12:25;11.00;;;4.53;;